createdAt,value
2019-02-08T00:01:31.222Z,59.29
2019-02-08T00:04:01.099Z,59.27
2019-02-08T00:06:30.705Z,59.33
2019-02-08T00:09:00.275Z,59.15
2019-02-08T00:11:29.867Z,58.80
2019-02-08T00:13:59.653Z,58.85
2019-02-08T00:16:29.391Z,58.66
2019-02-08T00:18:58.996Z,58.49
2019-02-08T00:21:28.577Z,58.34
2019-02-08T00:23:58.286Z,58.13
2019-02-08T00:26:27.868Z,57.82
2019-02-08T00:28:57.483Z,57.56
2019-02-08T00:31:27.426Z,57.12
2019-02-08T00:33:56.917Z,56.94
2019-02-08T00:36:26.540Z,57.06
2019-02-08T00:38:56.076Z,57.26
2019-02-08T00:41:25.707Z,57.22
2019-02-08T00:43:55.223Z,57.48
2019-02-08T00:46:24.922Z,57.56
2019-02-08T00:48:54.448Z,57.53
2019-02-08T00:51:24.033Z,57.27
2019-02-08T00:53:53.580Z,58.01
2019-02-08T00:56:23.191Z,58.52
2019-02-08T00:58:52.802Z,58.95
2019-02-08T01:01:22.454Z,59.02
2019-02-08T01:03:52.131Z,59.00
2019-02-08T01:06:21.712Z,59.43
2019-02-08T01:08:51.332Z,59.95
2019-02-08T01:11:21.029Z,60.26
2019-02-08T01:13:50.642Z,59.89
2019-02-08T01:16:20.222Z,59.91
2019-02-08T01:18:50.034Z,59.46
2019-02-08T01:21:19.658Z,59.81
2019-02-08T01:23:49.259Z,59.92
2019-02-08T01:26:18.844Z,59.75
2019-02-08T01:28:48.400Z,59.87
2019-02-08T01:31:18.009Z,59.88
2019-02-08T01:33:47.542Z,59.72
2019-02-08T01:36:17.125Z,59.40
2019-02-08T01:38:46.808Z,59.27
2019-02-08T01:41:16.400Z,59.10
2019-02-08T01:43:46.017Z,59.21
2019-02-08T01:46:15.604Z,59.05
2019-02-08T01:48:45.146Z,58.73
2019-02-08T01:51:14.716Z,58.29
2019-02-08T01:53:48.663Z,58.07
2019-02-08T01:56:15.631Z,57.80
2019-02-08T01:58:45.160Z,57.88
2019-02-08T02:01:14.807Z,57.65
2019-02-08T02:03:44.313Z,57.60
2019-02-08T02:06:13.890Z,57.70
2019-02-08T02:08:43.494Z,57.82
2019-02-08T02:11:13.005Z,57.79
2019-02-08T02:13:42.614Z,57.31
2019-02-08T02:16:12.216Z,57.69
2019-02-08T02:18:41.814Z,57.56
2019-02-08T02:21:11.423Z,57.45
2019-02-08T02:23:41.079Z,57.64
2019-02-08T02:26:10.673Z,57.61
2019-02-08T02:28:40.280Z,57.74
2019-02-08T02:31:09.864Z,57.40
2019-02-08T02:33:39.442Z,57.45
2019-02-08T02:36:09.354Z,57.55
2019-02-08T02:38:39.042Z,57.73
2019-02-08T02:41:08.643Z,57.52
2019-02-08T02:43:38.248Z,57.22
2019-02-08T02:46:07.842Z,57.25
2019-02-08T02:48:37.362Z,57.12
2019-02-08T02:51:07.473Z,57.30
2019-02-08T02:53:37.147Z,57.51
2019-02-08T02:56:06.816Z,57.26
2019-02-08T02:58:36.414Z,56.92
2019-02-08T03:01:06.012Z,57.10
2019-02-08T03:03:35.620Z,57.03
2019-02-08T03:06:05.489Z,56.99
2019-02-08T03:08:35.057Z,56.89
2019-02-08T03:11:04.736Z,56.83
2019-02-08T03:13:34.315Z,56.82
2019-02-08T03:16:03.999Z,56.80
2019-02-08T03:18:33.589Z,56.83
2019-02-08T03:21:03.188Z,56.83
2019-02-08T03:23:32.782Z,57.00
2019-02-08T03:26:02.477Z,56.81
2019-02-08T03:28:32.075Z,57.24
2019-02-08T03:31:01.941Z,57.41
2019-02-08T03:33:31.547Z,59.76
2019-02-08T03:36:01.161Z,59.46
2019-02-08T03:38:30.773Z,59.43
2019-02-08T03:41:00.453Z,59.69
2019-02-08T03:43:30.044Z,59.67
2019-02-08T03:45:59.634Z,59.58
2019-02-08T03:48:29.218Z,59.30
2019-02-08T03:50:58.903Z,59.39
2019-02-08T03:53:28.456Z,59.35
2019-02-08T03:55:58.978Z,59.17
2019-02-08T03:58:28.663Z,59.37
2019-02-08T04:01:06.095Z,58.98
2019-02-08T04:03:35.775Z,58.87
2019-02-08T04:06:05.774Z,58.85
2019-02-08T04:08:35.343Z,58.61
2019-02-08T04:11:05.119Z,58.62
2019-02-08T04:13:34.804Z,58.48
2019-02-08T04:16:04.949Z,58.25
2019-02-08T04:18:34.569Z,58.17
2019-02-08T04:21:04.238Z,58.33
2019-02-08T04:23:33.835Z,58.46
2019-02-08T04:26:03.435Z,58.36
2019-02-08T04:28:33.039Z,58.11
2019-02-08T04:31:02.641Z,58.01
2019-02-08T04:33:32.245Z,58.20
2019-02-08T04:36:01.937Z,58.22
2019-02-08T04:38:31.525Z,58.09
2019-02-08T04:41:01.046Z,57.95
2019-02-08T04:43:30.663Z,58.04
2019-02-08T04:46:00.276Z,58.12
2019-02-08T04:48:29.921Z,58.41
2019-02-08T04:50:59.519Z,58.24
2019-02-08T04:53:29.173Z,58.17
2019-02-08T04:55:58.802Z,58.24
2019-02-08T04:58:35.468Z,58.31
2019-02-08T05:00:59.944Z,58.30
2019-02-08T05:03:29.533Z,58.35
2019-02-08T05:05:59.133Z,58.47
2019-02-08T05:08:28.735Z,58.30
2019-02-08T05:10:58.331Z,58.36
2019-02-08T05:13:27.922Z,58.33
2019-02-08T05:15:57.528Z,58.11
2019-02-08T05:18:27.180Z,58.09
2019-02-08T05:20:56.848Z,58.09
2019-02-08T05:23:26.510Z,58.05
2019-02-08T05:25:56.487Z,58.04
2019-02-08T05:28:26.071Z,58.10
2019-02-08T05:30:55.716Z,58.29
2019-02-08T05:33:25.410Z,58.54
2019-02-08T05:35:55.059Z,58.48
2019-02-08T05:38:24.704Z,58.47
2019-02-08T05:40:54.362Z,58.50
2019-02-08T05:43:23.890Z,58.76
2019-02-08T05:45:53.570Z,59.20
2019-02-08T05:48:23.176Z,59.43
2019-02-08T05:50:52.798Z,59.41
2019-02-08T05:53:22.528Z,59.79
2019-02-08T05:55:52.211Z,59.80
2019-02-08T05:58:21.785Z,59.80
2019-02-08T06:00:58.415Z,59.80
2019-02-08T06:03:28.156Z,59.86
2019-02-08T06:05:57.731Z,59.99
2019-02-08T06:08:27.410Z,59.61
2019-02-08T06:10:57.074Z,59.67
2019-02-08T06:13:26.749Z,59.99
2019-02-08T06:15:56.370Z,59.83
2019-02-08T06:18:26.125Z,60.19
2019-02-08T06:20:55.797Z,60.12
2019-02-08T06:23:25.437Z,60.32
2019-02-08T06:25:55.121Z,60.02
2019-02-08T06:28:24.695Z,60.02
2019-02-08T06:30:54.369Z,59.98
2019-02-08T06:33:24.070Z,60.02
2019-02-08T06:35:53.672Z,60.04
2019-02-08T06:38:23.230Z,59.48
2019-02-08T06:40:52.813Z,59.47
2019-02-08T06:43:22.443Z,59.54
2019-02-08T06:45:52.003Z,59.35
2019-02-08T06:48:21.672Z,59.29
2019-02-08T06:50:51.304Z,59.28
2019-02-08T06:53:20.892Z,59.38
2019-02-08T06:55:53.791Z,59.36
2019-02-08T06:58:30.275Z,59.60
2019-02-08T07:01:27.817Z,60.06
2019-02-08T07:04:17.619Z,60.21
2019-02-08T07:07:04.558Z,60.36
2019-02-08T07:09:51.968Z,60.66
2019-02-08T07:12:40.535Z,60.72
2019-02-08T07:15:34.875Z,60.99
2019-02-08T07:18:19.520Z,60.76
2019-02-08T07:21:13.463Z,61.14
2019-02-08T07:23:56.147Z,61.58
2019-02-08T07:26:43.327Z,61.89
2019-02-08T07:29:22.742Z,62.15
2019-02-08T07:32:11.362Z,62.38
2019-02-08T07:35:10.703Z,62.31
2019-02-08T07:37:54.615Z,62.10
2019-02-08T07:40:48.104Z,61.76
2019-02-08T07:43:36.029Z,62.18
2019-02-08T07:46:24.838Z,62.26
2019-02-08T07:49:31.751Z,62.59
2019-02-08T07:52:20.660Z,62.65
2019-02-08T07:55:02.707Z,62.53
2019-02-08T07:57:57.458Z,62.91
2019-02-08T08:00:40.914Z,63.34
2019-02-08T08:03:28.190Z,62.83
2019-02-08T08:06:16.942Z,62.58
2019-02-08T08:09:20.507Z,62.61
2019-02-08T08:12:06.851Z,62.10
2019-02-08T08:14:46.053Z,61.74
2019-02-08T08:17:40.608Z,61.67
2019-02-08T08:20:34.051Z,59.85
2019-02-08T08:23:22.899Z,61.00
2019-02-08T08:26:14.845Z,61.67
2019-02-08T08:29:06.651Z,61.58
2019-02-08T08:31:43.552Z,63.33
2019-02-08T08:34:24.407Z,64.31
2019-02-08T08:37:18.080Z,66.01
2019-02-08T08:40:40.603Z,67.93
2019-02-08T08:43:40.437Z,68.86
2019-02-08T08:47:00.533Z,69.90
2019-02-08T08:49:53.361Z,69.96
2019-02-08T08:52:53.277Z,71.53
2019-02-08T08:56:14.276Z,75.39
2019-02-08T08:59:07.253Z,74.94
2019-02-08T09:02:26.171Z,74.73
2019-02-08T09:05:23.572Z,76.73
2019-02-08T09:08:19.143Z,75.56
2019-02-08T09:11:22.436Z,76.76
2019-02-08T09:14:40.923Z,74.07
2019-02-08T09:17:50.704Z,75.07
2019-02-08T09:21:15.621Z,75.18
2019-02-08T09:24:01.579Z,75.56
2019-02-08T09:27:04.351Z,75.53
2019-02-08T09:30:06.552Z,74.63
2019-02-08T09:33:32.145Z,73.33
2019-02-08T09:36:36.117Z,74.88
2019-02-08T09:39:44.461Z,73.37
2019-02-08T09:42:46.820Z,74.91
2019-02-08T09:46:10.283Z,74.80
2019-02-08T09:49:39.351Z,75.28
2019-02-08T09:53:00.955Z,72.29
2019-02-08T09:56:07.519Z,74.37
2019-02-08T09:59:08.835Z,73.56
2019-02-08T10:02:28.424Z,75.36
2019-02-08T10:05:23.812Z,75.15
2019-02-08T10:08:34.824Z,74.84
2019-02-08T10:11:27.007Z,74.38
2019-02-08T10:14:31.786Z,73.22
2019-02-08T10:17:36.244Z,71.29
2019-02-08T10:20:49.970Z,71.17
2019-02-08T10:24:07.084Z,67.02
2019-02-08T10:27:27.907Z,66.26
2019-02-08T10:30:59.613Z,68.81
2019-02-08T10:34:07.655Z,68.52
2019-02-08T10:37:05.007Z,64.37
2019-02-08T10:40:10.268Z,63.19
2019-02-08T10:43:22.386Z,64.61
2019-02-08T10:46:21.860Z,64.27
2019-02-08T10:49:42.024Z,67.22
2019-02-08T10:52:57.540Z,68.93
2019-02-08T10:55:55.541Z,68.05
2019-02-08T10:59:03.699Z,66.47
2019-02-08T11:02:16.133Z,66.41
2019-02-08T11:05:21.508Z,65.97
2019-02-08T11:08:31.047Z,67.43
2019-02-08T11:11:37.279Z,67.57
2019-02-08T11:14:57.370Z,66.90
2019-02-08T11:17:52.437Z,66.24
2019-02-08T11:20:22.019Z,65.57
2019-02-08T11:22:51.624Z,62.87
2019-02-08T11:25:21.220Z,63.25
2019-02-08T11:27:50.769Z,62.97
2019-02-08T11:30:20.452Z,57.21
2019-02-08T11:32:50.126Z,61.50
2019-02-08T11:35:19.752Z,63.45
2019-02-08T11:37:49.334Z,60.95
2019-02-08T11:40:23.288Z,62.27
2019-02-08T11:42:52.921Z,61.14
2019-02-08T11:45:22.508Z,56.21
2019-02-08T11:47:52.120Z,58.07
2019-02-08T11:50:22.100Z,56.58
2019-02-08T11:52:51.652Z,57.52
2019-02-08T11:55:21.145Z,55.13
2019-02-08T11:57:50.737Z,57.91
2019-02-08T12:00:27.393Z,55.43
2019-02-08T12:02:56.978Z,55.73
2019-02-08T12:05:26.655Z,54.13
2019-02-08T12:07:56.269Z,54.44
2019-02-08T12:10:25.902Z,52.61
2019-02-08T12:12:55.465Z,55.35
2019-02-08T12:15:25.173Z,58.13
2019-02-08T12:17:54.793Z,51.63
2019-02-08T12:20:24.450Z,53.30
2019-02-08T12:22:54.030Z,55.03
2019-02-08T12:25:23.656Z,51.94
2019-02-08T12:27:53.298Z,55.97
2019-02-08T12:30:26.044Z,56.39
2019-02-08T12:32:55.634Z,51.14
2019-02-08T12:35:25.312Z,51.22
2019-02-08T12:37:54.901Z,51.50
2019-02-08T12:40:24.845Z,49.45
2019-02-08T12:42:54.393Z,53.81
2019-02-08T12:45:24.077Z,55.88
2019-02-08T12:47:53.604Z,47.34
2019-02-08T12:50:23.498Z,48.73
2019-02-08T12:52:53.101Z,47.90
2019-02-08T12:55:22.759Z,48.33
2019-02-08T12:57:52.344Z,49.37
2019-02-08T13:00:22.173Z,50.37
2019-02-08T13:02:51.822Z,51.49
2019-02-08T13:05:21.705Z,50.02
2019-02-08T13:07:51.494Z,51.53
2019-02-08T13:10:22.738Z,46.93
2019-02-08T13:12:52.710Z,47.57
2019-02-08T13:15:22.284Z,52.03
2019-02-08T13:17:51.967Z,52.90
2019-02-08T13:20:21.570Z,49.53
2019-02-08T13:22:51.190Z,50.29
2019-02-08T13:25:20.763Z,50.70
2019-02-08T13:27:50.368Z,50.71
2019-02-08T13:30:25.530Z,50.76
2019-02-08T13:32:55.188Z,48.20
2019-02-08T13:35:24.844Z,44.20
2019-02-08T13:37:54.521Z,47.21
2019-02-08T13:40:24.198Z,45.33
2019-02-08T13:42:53.819Z,46.97
2019-02-08T13:45:23.580Z,48.52
2019-02-08T13:47:53.279Z,50.07
2019-02-08T13:50:24.138Z,50.86
2019-02-08T13:52:53.771Z,50.68
2019-02-08T13:55:23.928Z,51.81
2019-02-08T13:57:53.790Z,48.99
2019-02-08T14:00:34.624Z,45.00
2019-02-08T14:03:04.418Z,47.42
2019-02-08T14:05:34.087Z,44.13
2019-02-08T14:08:03.777Z,41.36
2019-02-08T14:10:33.424Z,43.77
2019-02-08T14:13:03.362Z,43.44
2019-02-08T14:15:32.974Z,44.90
2019-02-08T14:18:02.580Z,46.49
2019-02-08T14:20:32.152Z,45.27
2019-02-08T14:23:01.785Z,44.14
2019-02-08T14:25:31.382Z,47.26
2019-02-08T14:28:00.959Z,47.87
2019-02-08T14:30:32.858Z,46.59
2019-02-08T14:33:02.447Z,45.71
2019-02-08T14:35:32.224Z,48.05
2019-02-08T14:38:02.849Z,47.88
2019-02-08T14:40:32.486Z,46.79
2019-02-08T14:43:02.171Z,46.01
2019-02-08T14:45:31.752Z,46.32
2019-02-08T14:48:01.383Z,47.43
2019-02-08T14:50:31.161Z,45.65
2019-02-08T14:53:01.017Z,46.79
2019-02-08T14:55:30.640Z,47.11
2019-02-08T14:58:00.898Z,45.43
2019-02-08T15:00:30.513Z,45.24
2019-02-08T15:03:00.081Z,44.15
2019-02-08T15:05:29.676Z,43.57
2019-02-08T15:07:59.340Z,44.86
2019-02-08T15:10:36.958Z,42.35
2019-02-08T15:13:06.634Z,43.99
2019-02-08T15:15:36.148Z,44.76
2019-02-08T15:18:06.446Z,43.84
2019-02-08T15:20:36.139Z,44.42
2019-02-08T15:23:05.832Z,43.50
2019-02-08T15:25:35.427Z,42.69
2019-02-08T15:28:05.095Z,41.98
2019-02-08T15:30:34.785Z,40.60
2019-02-08T15:33:05.087Z,40.29
2019-02-08T15:35:35.227Z,41.14
2019-02-08T15:38:05.292Z,41.25
2019-02-08T15:40:42.828Z,41.34
2019-02-08T15:43:13.235Z,41.41
2019-02-08T15:45:45.659Z,41.66
2019-02-08T15:48:15.168Z,41.63
2019-02-08T15:50:44.864Z,40.22
2019-02-08T15:53:14.412Z,39.76
2019-02-08T15:55:45.528Z,40.26
2019-02-08T15:58:15.112Z,41.01
2019-02-08T16:00:44.710Z,40.93
2019-02-08T16:03:14.379Z,41.10
2019-02-08T16:05:43.976Z,41.66
2019-02-08T16:08:13.664Z,41.16
2019-02-08T16:10:43.242Z,41.13
2019-02-08T16:13:12.816Z,40.66
2019-02-08T16:15:42.425Z,40.65
2019-02-08T16:18:12.239Z,40.16
2019-02-08T16:20:42.031Z,40.17
2019-02-08T16:23:11.548Z,40.23
2019-02-08T16:25:41.188Z,40.59
2019-02-08T16:28:10.787Z,40.68
2019-02-08T16:30:40.698Z,40.75
2019-02-08T16:33:10.363Z,40.84
2019-02-08T16:35:39.955Z,41.05
2019-02-08T16:38:10.045Z,41.26
2019-02-08T16:40:39.693Z,41.60
2019-02-08T16:43:09.291Z,42.65
2019-02-08T16:45:38.995Z,43.21
2019-02-08T16:48:09.201Z,42.12
2019-02-08T16:50:38.958Z,42.12
2019-02-08T16:53:09.126Z,41.77
2019-02-08T16:55:38.800Z,41.79
2019-02-08T16:58:08.756Z,41.68
2019-02-08T17:00:38.461Z,41.74
2019-02-08T17:03:10.081Z,42.12
2019-02-08T17:05:39.699Z,42.93
2019-02-08T17:08:09.463Z,42.21
2019-02-08T17:10:39.064Z,42.31
2019-02-08T17:13:10.272Z,42.55
2019-02-08T17:15:39.992Z,42.47
2019-02-08T17:18:09.682Z,42.58
2019-02-08T17:20:41.687Z,42.92
2019-02-08T17:23:11.424Z,42.89
2019-02-08T17:25:41.031Z,43.05
2019-02-08T17:28:11.373Z,42.96
2019-02-08T17:30:41.044Z,43.00
2019-02-08T17:33:11.371Z,43.05
2019-02-08T17:35:40.990Z,43.03
2019-02-08T17:38:10.585Z,43.09
2019-02-08T17:40:41.972Z,43.21
2019-02-08T17:43:11.652Z,43.22
2019-02-08T17:45:41.240Z,43.28
2019-02-08T17:48:13.279Z,43.37
2019-02-08T17:50:42.864Z,43.28
2019-02-08T17:53:12.535Z,43.55
2019-02-08T17:55:42.203Z,43.51
2019-02-08T17:58:11.874Z,43.61
2019-02-08T18:00:50.697Z,43.40
2019-02-08T18:03:20.369Z,43.61
2019-02-08T18:05:49.967Z,43.62
2019-02-08T18:08:19.585Z,43.37
2019-02-08T18:10:49.180Z,43.52
2019-02-08T18:13:18.857Z,43.48
2019-02-08T18:15:48.785Z,43.61
2019-02-08T18:18:20.288Z,43.93
2019-02-08T18:20:52.500Z,43.97
2019-02-08T18:23:22.097Z,44.22
2019-02-08T18:25:51.700Z,44.34
2019-02-08T18:28:21.475Z,44.43
2019-02-08T18:30:51.024Z,44.18
2019-02-08T18:33:20.548Z,44.23
2019-02-08T18:35:50.066Z,44.31
2019-02-08T18:38:19.801Z,44.29
2019-02-08T18:40:49.442Z,44.45
2019-02-08T18:43:19.206Z,44.41
2019-02-08T18:45:48.998Z,44.42
2019-02-08T18:48:18.741Z,44.68
2019-02-08T18:50:50.485Z,45.28
2019-02-08T18:53:20.108Z,46.04
2019-02-08T18:55:49.689Z,45.44
2019-02-08T18:58:19.612Z,45.74
2019-02-08T19:00:50.465Z,44.80
2019-02-08T19:03:20.618Z,44.80
2019-02-08T19:05:50.339Z,45.05
2019-02-08T19:08:19.979Z,44.65
2019-02-08T19:10:49.607Z,45.76
2019-02-08T19:13:19.579Z,46.12
2019-02-08T19:15:49.396Z,45.57
2019-02-08T19:18:19.074Z,45.51
2019-02-08T19:20:48.712Z,45.56
2019-02-08T19:23:18.420Z,45.52
2019-02-08T19:25:48.019Z,45.22
2019-02-08T19:28:17.656Z,45.45
2019-02-08T19:30:47.343Z,45.32
2019-02-08T19:33:16.966Z,45.86
2019-02-08T19:35:46.627Z,45.82
2019-02-08T19:38:16.235Z,45.48
2019-02-08T19:40:46.372Z,45.42
2019-02-08T19:43:16.111Z,45.74
2019-02-08T19:45:45.697Z,45.57
2019-02-08T19:48:15.342Z,45.56
2019-02-08T19:50:45.769Z,45.60
2019-02-08T19:53:15.375Z,45.57
2019-02-08T19:55:45.122Z,45.74
2019-02-08T19:58:14.760Z,45.66
2019-02-08T20:00:44.470Z,45.87
2019-02-08T20:03:14.144Z,45.71
2019-02-08T20:05:43.720Z,45.86
2019-02-08T20:08:14.190Z,45.95
2019-02-08T20:10:45.616Z,45.97
2019-02-08T20:13:15.236Z,45.79
2019-02-08T20:15:44.913Z,45.80
2019-02-08T20:18:14.938Z,46.12
2019-02-08T20:20:44.634Z,46.02
2019-02-08T20:23:14.187Z,46.04
2019-02-08T20:25:43.785Z,46.09
2019-02-08T20:28:13.382Z,45.99
2019-02-08T20:30:43.064Z,45.94
2019-02-08T20:33:12.662Z,45.96
2019-02-08T20:35:42.354Z,46.10
2019-02-08T20:38:13.215Z,46.13
2019-02-08T20:40:45.296Z,46.35
2019-02-08T20:43:14.964Z,46.51
2019-02-08T20:45:44.559Z,46.47
2019-02-08T20:48:19.197Z,46.48
2019-02-08T20:50:48.871Z,48.64
2019-02-08T20:53:18.547Z,47.34
2019-02-08T20:55:48.297Z,47.12
2019-02-08T20:58:17.898Z,46.84
2019-02-08T21:00:49.375Z,46.71
2019-02-08T21:03:19.134Z,47.07
2019-02-08T21:05:49.134Z,47.00
2019-02-08T21:08:19.807Z,46.70
2019-02-08T21:10:49.920Z,46.53
2019-02-08T21:13:19.510Z,46.58
2019-02-08T21:15:49.121Z,46.66
2019-02-08T21:18:18.660Z,46.45
2019-02-08T21:20:48.569Z,46.85
2019-02-08T21:23:18.339Z,46.34
2019-02-08T21:25:52.152Z,46.88
2019-02-08T21:28:19.360Z,46.66
2019-02-08T21:30:48.885Z,46.86
2019-02-08T21:33:18.507Z,46.80
2019-02-08T21:35:49.521Z,46.83
2019-02-08T21:38:19.280Z,47.01
2019-02-08T21:40:48.980Z,47.28
2019-02-08T21:43:18.680Z,47.23
2019-02-08T21:45:48.395Z,47.32
2019-02-08T21:48:18.063Z,47.27
2019-02-08T21:50:47.692Z,47.41
2019-02-08T21:53:17.231Z,48.97
2019-02-08T21:55:46.950Z,49.92
2019-02-08T21:58:16.529Z,49.79
2019-02-08T22:00:46.536Z,48.67
2019-02-08T22:03:16.133Z,47.84
2019-02-08T22:05:54.628Z,47.16
2019-02-08T22:08:24.724Z,47.11
2019-02-08T22:10:54.392Z,47.30
2019-02-08T22:13:23.993Z,47.02
2019-02-08T22:15:53.573Z,46.93
2019-02-08T22:18:23.167Z,47.04
2019-02-08T22:20:52.789Z,46.94
2019-02-08T22:23:22.443Z,47.04
2019-02-08T22:25:52.110Z,47.11
2019-02-08T22:28:21.671Z,46.78
2019-02-08T22:30:51.277Z,46.84
2019-02-08T22:33:20.891Z,46.95
2019-02-08T22:35:50.406Z,46.75
2019-02-08T22:38:20.052Z,46.79
2019-02-08T22:40:49.693Z,46.64
2019-02-08T22:43:19.298Z,46.57
2019-02-08T22:45:48.920Z,46.93
2019-02-08T22:48:18.472Z,46.72
2019-02-08T22:50:47.995Z,47.25
2019-02-08T22:53:17.682Z,46.64
2019-02-08T22:55:47.218Z,47.15
2019-02-08T22:58:16.756Z,47.29
2019-02-08T23:01:13.616Z,47.60
2019-02-08T23:03:43.309Z,47.65
2019-02-08T23:06:12.965Z,49.00
2019-02-08T23:08:42.584Z,48.17
2019-02-08T23:11:12.159Z,47.47
2019-02-08T23:13:41.781Z,47.28
2019-02-08T23:16:11.450Z,47.23
2019-02-08T23:18:41.067Z,47.40
2019-02-08T23:21:10.911Z,49.60
2019-02-08T23:23:40.720Z,48.66
2019-02-08T23:26:10.368Z,51.29
2019-02-08T23:28:39.988Z,48.95
2019-02-08T23:31:09.673Z,49.78
2019-02-08T23:33:39.257Z,47.90
2019-02-08T23:36:08.866Z,49.15
2019-02-08T23:38:38.507Z,47.49
2019-02-08T23:41:08.516Z,47.30
2019-02-08T23:43:38.115Z,47.23
2019-02-08T23:46:07.716Z,46.97
2019-02-08T23:48:37.396Z,47.00
2019-02-08T23:51:07.043Z,47.60
2019-02-08T23:53:36.646Z,47.15
2019-02-08T23:56:06.433Z,46.93
2019-02-08T23:58:35.962Z,47.80
